Time;durP1;ratioP1;P1;durP2;ratioP2;P2;SDS_P1;SDS_P2;PMS_P1;PMS_P2;Temp;Humidity;BMP_temperature;BMP_pressure;BME280_temperature;BME280_humidity;BME280_pressure;Samples;Min_cycle;Max_cycle;Signal;HPM_P1;HPM_P2
2023/02/16 00:00:28;;;;;;;;;;;;;;;20.26;29.23;102320.93;106230;1283;61265;-82
2023/02/16 00:02:54;;;;;;;;;;;;;;;20.27;29.18;102320.92;106229;1281;61291;-82
2023/02/16 00:05:25;;;;;;;;;;;;;;;20.26;29.12;102317.55;106204;1283;61289;-82
2023/02/16 00:07:56;;;;;;;;;;;;;;;20.27;29.16;102315.57;106285;1282;72492;-83
2023/02/16 00:10:21;;;;;;;;;;;;;;;20.26;29.17;102319.70;106052;1282;61400;-83
2023/02/16 00:15:31;;;;;;;;;;;;;;;20.26;29.00;102322.20;106238;1282;61250;-83
2023/02/16 00:17:58;;;;;;;;;;;;;;;20.26;29.13;102322.20;106194;1282;61374;-83
2023/02/16 00:20:23;;;;;;;;;;;;;;;20.26;29.12;102322.55;106216;1283;61354;-82
2023/02/16 00:22:49;;;;;;;;;;;;;;;20.26;29.03;102318.64;106201;1281;61301;-82
2023/02/16 00:25:14;;;;;;;;;;;;;;;20.26;29.18;102308.46;106057;1282;61365;-82
2023/02/16 00:27:40;;;;;;;;;;;;;;;20.26;29.13;102310.42;106196;1282;61320;-82
2023/02/16 00:30:12;;;;;;;;;;;;;;;20.26;29.09;102306.67;106179;1282;72527;-82
2023/02/16 00:32:38;;;;;;;;;;;;;;;20.25;29.05;102309.73;106190;1282;74374;-83
2023/02/16 00:35:05;;;;;;;;;;;;;;;20.25;29.05;102309.02;106236;1282;62004;-83
2023/02/16 00:37:30;;;;;;;;;;;;;;;20.25;29.08;102307.23;106185;1282;61366;-82
2023/02/16 00:39:56;;;;;;;;;;;;;;;20.25;28.99;102303.13;106226;1283;61390;-83
2023/02/16 00:42:23;;;;;;;;;;;;;;;20.25;29.21;102300.26;106292;1282;59082;-83
2023/02/16 00:44:51;;;;;;;;;;;;;;;20.25;29.23;102299.56;106230;1281;61602;-83
2023/02/16 00:47:37;;;;;;;;;;;;;;;20.25;29.07;102299.36;106057;1283;61255;-83
2023/02/16 00:50:03;;;;;;;;;;;;;;;20.25;29.10;102300.80;106226;1283;72599;-83
2023/02/16 00:52:30;;;;;;;;;;;;;;;20.25;29.14;102306.52;106304;1282;61280;-83
2023/02/16 00:54:55;;;;;;;;;;;;;;;20.25;29.08;102302.21;106358;1282;61558;-82
2023/02/16 00:57:21;;;;;;;;;;;;;;;20.25;29.08;102302.95;106290;1282;61225;-82
2023/02/16 00:59:46;;;;;;;;;;;;;;;20.25;28.98;102304.20;106185;1282;61333;-82
2023/02/16 01:02:12;;;;;;;;;;;;;;;20.25;29.00;102305.80;106397;1282;61249;-83
2023/02/16 01:04:38;;;;;;;;;;;;;;;20.25;29.05;102308.13;106497;1282;61260;-82
2023/02/16 01:12:42;;;;;;;;;;;;;;;20.26;29.16;102308.11;106301;1282;73453;-82
2023/02/16 01:15:14;;;;;;;;;;;;;;;20.26;29.10;102304.33;106200;1282;61317;-82
2023/02/16 01:17:40;;;;;;;;;;;;;;;20.26;28.99;102301.66;106309;1282;61320;-82
2023/02/16 01:20:13;;;;;;;;;;;;;;;20.25;28.97;102298.81;106066;1282;61232;-82
2023/02/16 01:22:40;;;;;;;;;;;;;;;20.25;29.02;102295.61;106157;1283;72219;-82
2023/02/16 01:25:05;;;;;;;;;;;;;;;20.25;29.10;102298.64;106191;1283;74233;-82
2023/02/16 01:27:32;;;;;;;;;;;;;;;20.25;28.92;102295.45;106327;1282;61257;-82
2023/02/16 01:29:57;;;;;;;;;;;;;;;20.25;29.12;102294.73;106218;1282;61271;-82
2023/02/16 01:32:23;;;;;;;;;;;;;;;20.25;29.09;102294.19;106290;1282;61265;-82
2023/02/16 01:34:48;;;;;;;;;;;;;;;20.25;28.96;102296.16;106186;1283;61432;-82
2023/02/16 01:37:15;;;;;;;;;;;;;;;20.24;28.98;102290.09;106264;1282;61246;-82
2023/02/16 01:39:41;;;;;;;;;;;;;;;20.24;29.12;102291.90;106196;1282;61235;-82
2023/02/16 01:42:17;;;;;;;;;;;;;;;20.24;28.85;102288.50;105961;1285;61267;-82
2023/02/16 01:44:50;;;;;;;;;;;;;;;20.24;28.92;102290.83;105841;1285;73435;-82
2023/02/16 01:47:28;;;;;;;;;;;;;;;20.23;29.01;102286.92;105963;1285;75304;-82
2023/02/16 01:49:54;;;;;;;;;;;;;;;20.23;29.00;102282.45;105901;1285;61221;-82
2023/02/16 01:52:27;;;;;;;;;;;;;;;20.24;28.83;102280.65;105841;1286;61298;-82
2023/02/16 01:54:55;;;;;;;;;;;;;;;20.23;28.91;102280.48;105943;1285;72564;-84
2023/02/16 01:57:39;;;;;;;;;;;;;;;20.24;28.99;102279.22;105957;1285;74153;-82
2023/02/16 02:00:26;;;;;;;;;;;;;;;20.23;28.99;102276.92;105942;1285;61273;-82
2023/02/16 02:02:53;;;;;;;;;;;;;;;20.23;28.83;102277.45;105958;1285;61416;-82
2023/02/16 02:05:35;;;;;;;;;;;;;;;20.23;28.90;102279.23;105979;1285;72503;-82
2023/02/16 02:08:18;;;;;;;;;;;;;;;20.23;28.89;102275.14;105848;1285;74465;-82
2023/02/16 02:10:49;;;;;;;;;;;;;;;20.23;28.86;102272.28;105834;1285;61169;-82
2023/02/16 02:13:18;;;;;;;;;;;;;;;20.23;28.84;102272.84;106097;1282;61224;-82
2023/02/16 02:15:43;;;;;;;;;;;;;;;20.23;28.82;102267.64;106270;1282;73699;-82
2023/02/16 02:18:09;;;;;;;;;;;;;;;20.23;28.87;102262.65;106187;1282;61349;-82
2023/02/16 02:23:37;;;;;;;;;;;;;;;20.22;28.86;102261.79;106226;1283;61262;-82
2023/02/16 02:26:05;;;;;;;;;;;;;;;20.23;28.85;102262.11;106323;1282;73411;-81
2023/02/16 02:28:34;;;;;;;;;;;;;;;20.22;28.96;102259.45;106224;1281;73505;-81
2023/02/16 02:31:02;;;;;;;;;;;;;;;20.22;28.94;102264.11;106333;1281;61141;-83
2023/02/16 02:33:30;;;;;;;;;;;;;;;20.22;28.87;102265.16;106093;1281;61259;-82
2023/02/16 02:36:05;;;;;;;;;;;;;;;20.22;28.87;102265.16;106286;1282;71276;-82
2023/02/16 02:38:30;;;;;;;;;;;;;;;20.22;28.97;102263.94;106311;1281;75610;-82
2023/02/16 02:40:56;;;;;;;;;;;;;;;20.22;28.79;102266.77;106315;1283;61294;-82
2023/02/16 02:43:24;;;;;;;;;;;;;;;20.22;28.89;102268.58;106302;1281;61208;-82
2023/02/16 02:45:58;;;;;;;;;;;;;;;20.22;28.97;102266.61;106218;1282;61250;-82
2023/02/16 02:48:28;;;;;;;;;;;;;;;20.21;28.83;102265.75;106460;1282;74546;-82
2023/02/16 02:53:43;;;;;;;;;;;;;;;20.21;28.80;102269.32;106317;1282;61158;-82
2023/02/16 03:01:39;;;;;;;;;;;;;;;20.22;28.86;102265.20;106227;1282;61077;-82
2023/02/16 03:04:05;;;;;;;;;;;;;;;20.22;28.85;102265.73;106106;1282;61285;-82
2023/02/16 03:06:34;;;;;;;;;;;;;;;20.22;28.89;102270.36;106170;1287;61278;-82
2023/02/16 03:09:01;;;;;;;;;;;;;;;20.22;28.93;102269.49;106224;1282;74444;-82
2023/02/16 03:14:17;;;;;;;;;;;;;;;20.21;28.84;102266.48;106225;1282;61143;-82
2023/02/16 03:30:32;;;;;;;;;;;;;;;20.21;28.91;102272.19;106373;1283;74394;-82
2023/02/16 03:32:57;;;;;;;;;;;;;;;20.21;29.02;102274.16;106388;1282;60941;-82
2023/02/16 03:35:24;;;;;;;;;;;;;;;20.21;28.79;102275.94;106237;1282;61320;-82
2023/02/16 03:37:50;;;;;;;;;;;;;;;20.23;28.84;102278.92;106298;1282;59329;-82
2023/02/16 03:40:29;;;;;;;;;;;;;;;20.23;28.90;102281.08;106210;1282;61339;-82
2023/02/16 03:42:58;;;;;;;;;;;;;;;20.23;28.86;102279.29;106197;1283;60213;-82
2023/02/16 03:45:23;;;;;;;;;;;;;;;20.23;28.93;102279.82;106326;1282;61179;-82
2023/02/16 03:47:49;;;;;;;;;;;;;;;20.23;28.90;102279.46;106185;1282;61409;-83
2023/02/16 03:50:14;;;;;;;;;;;;;;;20.23;28.86;102279.80;106185;1282;61284;-82
2023/02/16 03:53:06;;;;;;;;;;;;;;;20.22;28.86;102279.84;106229;1282;61442;-82
2023/02/16 03:55:41;;;;;;;;;;;;;;;20.21;28.87;102280.05;105665;1288;61232;-83
2023/02/16 03:58:07;;;;;;;;;;;;;;;20.21;28.82;102275.40;105520;1288;72629;-83
2023/02/16 04:00:33;;;;;;;;;;;;;;;20.22;28.84;102276.83;105499;1288;61282;-83
2023/02/16 04:02:59;;;;;;;;;;;;;;;20.21;28.72;102275.98;105534;1288;61382;-82
2023/02/16 04:05:25;;;;;;;;;;;;;;;20.21;28.82;102276.14;105491;1288;61311;-82
2023/02/16 04:07:50;;;;;;;;;;;;;;;20.20;28.69;102277.40;105503;1288;60010;-82
2023/02/16 04:10:16;;;;;;;;;;;;;;;20.21;28.64;102274.90;105527;1288;61256;-82
2023/02/16 04:12:41;;;;;;;;;;;;;;;20.20;28.69;102279.21;105535;1288;61302;-82
2023/02/16 04:15:09;;;;;;;;;;;;;;;20.20;28.78;102280.80;105679;1287;61282;-82
2023/02/16 04:18:01;;;;;;;;;;;;;;;20.20;28.70;102277.27;105601;1288;61306;-82
2023/02/16 04:20:27;;;;;;;;;;;;;;;20.20;28.60;102276.72;104968;1296;72252;-82
2023/02/16 04:22:52;;;;;;;;;;;;;;;20.20;28.67;102275.84;104997;1297;61250;-82
2023/02/16 04:25:18;;;;;;;;;;;;;;;20.19;28.79;102277.27;104958;1297;61423;-82
2023/02/16 04:27:44;;;;;;;;;;;;;;;20.19;28.90;102278.54;104947;1295;61287;-83
2023/02/16 04:30:11;;;;;;;;;;;;;;;20.19;28.68;102279.98;104938;1297;61274;-83
2023/02/16 04:32:36;;;;;;;;;;;;;;;20.19;28.65;102278.55;105118;1294;61358;-82
2023/02/16 04:35:02;;;;;;;;;;;;;;;20.19;28.75;102279.98;105337;1291;61337;-82
2023/02/16 04:37:27;;;;;;;;;;;;;;;20.18;28.62;102280.53;105379;1289;61291;-82
2023/02/16 04:39:53;;;;;;;;;;;;;;;20.18;28.68;102283.21;105308;1291;61360;-81
2023/02/16 04:42:19;;;;;;;;;;;;;;;20.19;28.79;102284.47;105464;1290;61509;-81
2023/02/16 04:44:44;;;;;;;;;;;;;;;20.18;28.58;102284.83;105372;1291;61262;-82
2023/02/16 04:47:10;;;;;;;;;;;;;;;20.18;28.68;102284.13;105372;1291;60132;-83
2023/02/16 04:49:35;;;;;;;;;;;;;;;20.18;28.73;102286.27;105358;1291;61296;-82
2023/02/16 04:52:02;;;;;;;;;;;;;;;20.18;28.59;102283.80;105380;1290;61313;-82
2023/02/16 04:54:28;;;;;;;;;;;;;;;20.17;28.64;102286.65;105430;1289;73512;-82
2023/02/16 04:56:54;;;;;;;;;;;;;;;20.18;28.69;102293.08;105477;1282;61222;-82
2023/02/16 04:59:19;;;;;;;;;;;;;;;20.17;28.67;102291.48;106202;1282;61349;-82
2023/02/16 05:01:45;;;;;;;;;;;;;;;20.17;28.64;102290.77;106223;1282;61240;-82
2023/02/16 05:04:11;;;;;;;;;;;;;;;20.17;28.59;102292.92;106256;1282;61266;-82
2023/02/16 05:06:37;;;;;;;;;;;;;;;20.17;28.52;102295.10;106182;1282;72557;-82
2023/02/16 05:09:03;;;;;;;;;;;;;;;20.16;28.51;102296.23;106207;1282;61367;-82
2023/02/16 05:17:02;;;;;;;;;;;;;;;20.09;28.56;102294.67;106249;1282;72591;-82
2023/02/16 05:19:27;;;;;;;;;;;;;;;20.08;28.45;102304.02;106203;1283;61297;-82
2023/02/16 05:21:53;;;;;;;;;;;;;;;20.06;28.49;102304.29;106250;1282;61313;-82
2023/02/16 05:24:18;;;;;;;;;;;;;;;20.04;28.48;102309.73;106229;1287;61281;-81
2023/02/16 05:26:44;;;;;;;;;;;;;;;20.01;28.44;102313.09;106288;1282;60120;-81
2023/02/16 05:29:09;;;;;;;;;;;;;;;19.97;28.33;102311.31;106238;1282;72669;-82
2023/02/16 05:31:35;;;;;;;;;;;;;;;19.92;28.39;102314.53;106222;1283;61268;-82
2023/02/16 05:34:00;;;;;;;;;;;;;;;19.87;28.23;102313.67;106434;1281;61454;-81
2023/02/16 05:36:26;;;;;;;;;;;;;;;19.83;28.32;102315.81;106323;1282;59099;-82
2023/02/16 05:38:51;;;;;;;;;;;;;;;19.79;28.17;102318.13;106272;1282;61227;-83
2023/02/16 05:41:23;;;;;;;;;;;;;;;19.74;28.28;102321.34;106128;1283;73427;-83
2023/02/16 05:43:49;;;;;;;;;;;;;;;19.70;28.42;102322.23;106100;1282;74459;-82
2023/02/16 05:46:15;;;;;;;;;;;;;;;19.66;28.20;102323.66;106276;1282;61302;-82
2023/02/16 05:48:40;;;;;;;;;;;;;;;19.62;28.36;102326.31;106394;1283;61246;-82
2023/02/16 05:51:06;;;;;;;;;;;;;;;19.59;28.17;102331.27;106246;1282;61281;-83
2023/02/16 05:53:31;;;;;;;;;;;;;;;19.55;28.35;102325.87;106123;1283;61409;-83
2023/02/16 05:55:57;;;;;;;;;;;;;;;19.52;28.24;102327.79;106389;1282;61157;-83
2023/02/16 05:58:22;;;;;;;;;;;;;;;19.47;28.19;102326.00;106285;1282;59947;-83
2023/02/16 06:00:47;;;;;;;;;;;;;;;19.43;28.28;102328.29;106190;1282;59986;-84
2023/02/16 06:03:13;;;;;;;;;;;;;;;19.39;28.17;102330.42;106420;1282;60022;-83
2023/02/16 06:05:39;;;;;;;;;;;;;;;19.36;28.15;102335.91;106562;1281;60682;-84
2023/02/16 06:08:04;;;;;;;;;;;;;;;19.34;28.10;102333.88;106354;1282;59729;-83
2023/02/16 06:10:31;;;;;;;;;;;;;;;19.32;28.30;102333.77;106225;1283;61243;-83
2023/02/16 06:12:56;;;;;;;;;;;;;;;19.31;28.20;102330.05;106207;1283;61295;-84
2023/02/16 06:15:23;;;;;;;;;;;;;;;19.30;28.19;102328.15;106171;1285;61131;-85
2023/02/16 06:17:48;;;;;;;;;;;;;;;19.29;28.18;102331.04;106154;1283;59719;-83
2023/02/16 06:20:14;;;;;;;;;;;;;;;19.28;28.21;102328.76;106169;1283;60763;-84
2023/02/16 06:22:39;;;;;;;;;;;;;;;19.28;28.12;102331.42;106167;1283;61161;-84
2023/02/16 06:25:05;;;;;;;;;;;;;;;19.29;28.07;102330.64;106354;1281;61243;-83
2023/02/16 06:27:30;;;;;;;;;;;;;;;19.32;27.97;102328.23;106254;1282;73499;-84
2023/02/16 06:29:55;;;;;;;;;;;;;;;19.35;28.14;102330.98;106257;1281;61577;-83
2023/02/16 06:32:21;;;;;;;;;;;;;;;19.37;27.93;102329.45;106299;1281;59883;-82
2023/02/16 06:34:47;;;;;;;;;;;;;;;19.40;27.97;102328.61;106308;1281;61384;-82
2023/02/16 06:37:13;;;;;;;;;;;;;;;19.45;27.96;102325.58;106147;1282;59866;-82
2023/02/16 06:39:38;;;;;;;;;;;;;;;19.49;27.82;102325.25;106243;1285;59821;-82
2023/02/16 06:42:04;;;;;;;;;;;;;;;19.52;27.94;102324.20;106257;1282;61231;-82
2023/02/16 06:44:30;;;;;;;;;;;;;;;19.57;27.88;102324.20;106308;1281;59506;-83
2023/02/16 06:46:56;;;;;;;;;;;;;;;19.61;27.97;102321.70;106191;1282;59476;-83
2023/02/16 06:49:22;;;;;;;;;;;;;;;19.65;27.85;102322.98;106240;1282;61091;-82
2023/02/16 06:52:13;;;;;;;;;;;;;;;19.68;27.91;102320.34;106176;1282;59601;-82
2023/02/16 06:54:38;;;;;;;;;;;;;;;19.72;27.85;102318.75;105539;1288;62277;-82
2023/02/16 06:57:04;;;;;;;;;;;;;;;19.65;27.72;102319.39;105459;1288;60028;-83
2023/02/16 06:59:29;;;;;;;;;;;;;;;19.55;27.78;102317.64;105492;1288;60224;-83
2023/02/16 07:01:55;;;;;;;;;;;;;;;19.50;27.90;102319.45;105071;1288;671145;-82
2023/02/16 07:04:20;;;;;;;;;;;;;;;19.42;27.78;102310.48;105510;1288;60219;-82
2023/02/16 07:06:46;;;;;;;;;;;;;;;19.37;27.91;102311.05;105580;1288;61192;-82
2023/02/16 07:09:11;;;;;;;;;;;;;;;19.36;27.99;102313.42;105584;1288;61364;-82
2023/02/16 07:11:37;;;;;;;;;;;;;;;19.36;27.88;102309.84;105555;1288;59332;-82
2023/02/16 07:14:03;;;;;;;;;;;;;;;19.39;27.90;102309.55;105479;1288;59742;-83
2023/02/16 07:16:28;;;;;;;;;;;;;;;19.43;28.05;102307.27;105485;1288;59295;-82
2023/02/16 07:18:54;;;;;;;;;;;;;;;19.47;28.00;102301.55;105514;1288;61381;-82
2023/02/16 07:21:19;;;;;;;;;;;;;;;19.51;28.13;102301.55;105592;1288;60030;-82
2023/02/16 07:23:45;;;;;;;;;;;;;;;19.56;28.03;102295.81;105541;1289;60601;-82
2023/02/16 07:26:10;;;;;;;;;;;;;;;19.62;27.99;102298.98;105519;1294;60944;-82
2023/02/16 07:28:37;;;;;;;;;;;;;;;19.66;28.00;102302.20;105497;1289;61480;-82
2023/02/16 07:31:06;;;;;;;;;;;;;;;19.71;28.03;102297.55;105552;1282;59333;-82
2023/02/16 07:33:33;;;;;;;;;;;;;;;19.75;28.09;102295.77;106165;1283;61100;-82
2023/02/16 07:35:59;;;;;;;;;;;;;;;19.78;28.05;102297.06;106198;1282;61240;-82
2023/02/16 07:38:24;;;;;;;;;;;;;;;19.82;28.16;102297.14;106341;1282;61263;-82
2023/02/16 07:40:50;;;;;;;;;;;;;;;19.85;28.02;102299.51;106352;1282;61288;-82
2023/02/16 07:43:17;;;;;;;;;;;;;;;19.88;28.13;102299.36;106235;1284;61257;-82
2023/02/16 07:45:42;;;;;;;;;;;;;;;19.91;28.33;102299.05;106365;1282;59538;-82
2023/02/16 07:48:08;;;;;;;;;;;;;;;19.93;28.23;102296.29;106219;1282;62016;-83
2023/02/16 07:50:34;;;;;;;;;;;;;;;19.96;28.24;102293.52;106393;1282;61075;-83
2023/02/16 07:53:01;;;;;;;;;;;;;;;19.98;28.31;102292.32;106138;1283;61023;-83
2023/02/16 07:55:27;;;;;;;;;;;;;;;19.97;28.40;102289.52;106156;1282;73447;-83
2023/02/16 07:57:55;;;;;;;;;;;;;;;19.80;28.31;102290.92;106122;1283;60095;-84
2023/02/16 08:00:21;;;;;;;;;;;;;;;19.61;28.23;102288.83;106233;1282;61275;-84
2023/02/16 08:02:46;;;;;;;;;;;;;;;19.55;28.29;102288.56;106324;1282;59948;-84
2023/02/16 08:05:38;;;;;;;;;;;;;;;19.53;28.52;102288.45;106276;1285;59795;-84
2023/02/16 08:08:04;;;;;;;;;;;;;;;19.55;28.68;102284.98;105595;1288;74586;-84
2023/02/16 08:10:29;;;;;;;;;;;;;;;19.51;28.81;102288.18;105635;1288;61232;-84
2023/02/16 08:12:55;;;;;;;;;;;;;;;19.49;28.86;102286.47;105603;1288;61462;-83
2023/02/16 08:15:22;;;;;;;;;;;;;;;19.48;29.00;102286.54;105476;1288;60142;-82
2023/02/16 08:17:48;;;;;;;;;;;;;;;19.49;28.89;102289.35;105975;1288;59883;-81
2023/02/16 08:20:13;;;;;;;;;;;;;;;19.51;28.93;102287.98;105788;1288;61296;-82
2023/02/16 08:22:39;;;;;;;;;;;;;;;19.56;28.99;102289.77;105665;1294;59415;-82
2023/02/16 08:25:04;;;;;;;;;;;;;;;19.61;29.14;102292.27;105661;1288;61976;-82
2023/02/16 08:27:30;;;;;;;;;;;;;;;19.65;29.07;102292.45;105681;1289;61288;-81
2023/02/16 08:29:57;;;;;;;;;;;;;;;19.69;29.20;102293.89;105550;1288;61503;-82
2023/02/16 08:32:22;;;;;;;;;;;;;;;19.72;29.04;102291.05;105548;1288;60106;-82
2023/02/16 08:34:48;;;;;;;;;;;;;;;19.76;29.23;102291.60;105551;1289;61366;-82
2023/02/16 08:37:13;;;;;;;;;;;;;;;19.80;29.17;102291.83;105534;1288;61272;-82
2023/02/16 08:39:39;;;;;;;;;;;;;;;19.83;29.07;102287.80;105640;1288;62371;-82
2023/02/16 08:42:05;;;;;;;;;;;;;;;19.85;29.22;102290.73;105548;1289;61299;-81
2023/02/16 08:44:31;;;;;;;;;;;;;;;19.87;29.21;102293.31;105644;1284;62104;-83
2023/02/16 08:46:58;;;;;;;;;;;;;;;19.89;29.29;102291.63;106182;1283;59404;-82
2023/02/16 08:49:24;;;;;;;;;;;;;;;19.91;29.10;102294.38;106316;1285;61729;-82
2023/02/16 08:51:51;;;;;;;;;;;;;;;19.93;29.24;102293.75;106333;1282;61036;-81
2023/02/16 08:54:19;;;;;;;;;;;;;;;19.95;29.19;102291.91;106176;1282;61365;-82
2023/02/16 08:56:46;;;;;;;;;;;;;;;19.97;29.33;102295.25;106238;1282;61147;-82
2023/02/16 08:59:15;;;;;;;;;;;;;;;19.98;29.30;102292.86;106176;1282;73517;-82
2023/02/16 09:01:41;;;;;;;;;;;;;;;20.00;29.31;102292.08;106185;1282;74462;-83
2023/02/16 09:04:06;;;;;;;;;;;;;;;19.99;29.32;102292.46;106273;1282;60028;-84
2023/02/16 09:06:31;;;;;;;;;;;;;;;19.96;29.41;102289.38;106413;1283;60105;-83
2023/02/16 09:09:03;;;;;;;;;;;;;;;19.93;29.52;102291.83;106149;1283;59730;-82
2023/02/16 09:11:29;;;;;;;;;;;;;;;19.92;29.97;102291.14;106841;1282;74512;-82
2023/02/16 09:13:56;;;;;;;;;;;;;;;19.92;29.99;102290.61;106233;1282;61380;-82
2023/02/16 09:16:22;;;;;;;;;;;;;;;19.91;29.93;102295.66;106222;1283;62494;-83
2023/02/16 09:18:47;;;;;;;;;;;;;;;19.91;29.94;102295.48;106273;1287;59510;-84
2023/02/16 09:21:14;;;;;;;;;;;;;;;19.92;29.84;102289.19;106154;1282;60559;-83
2023/02/16 09:23:41;;;;;;;;;;;;;;;19.93;29.90;102288.24;106359;1282;61237;-83
2023/02/16 09:26:06;;;;;;;;;;;;;;;19.93;30.03;102284.65;106350;1282;60426;-84
2023/02/16 09:28:32;;;;;;;;;;;;;;;19.96;29.90;102285.27;106112;1283;59455;-83
2023/02/16 09:30:58;;;;;;;;;;;;;;;19.97;29.76;102280.03;106331;1283;61266;-83
2023/02/16 09:33:24;;;;;;;;;;;;;;;19.98;29.92;102283.74;106240;1283;61291;-83
2023/02/16 09:35:49;;;;;;;;;;;;;;;19.98;29.90;102281.41;106322;1282;61236;-83
2023/02/16 09:38:15;;;;;;;;;;;;;;;19.99;29.90;102275.85;106290;1282;61240;-82
2023/02/16 09:40:42;;;;;;;;;;;;;;;19.99;29.81;102277.29;106303;1282;59333;-83
2023/02/16 09:43:17;;;;;;;;;;;;;;;19.99;29.75;102271.20;106301;1282;59488;-84
2023/02/16 09:45:43;;;;;;;;;;;;;;;19.99;29.75;102269.58;106291;1283;61298;-83
2023/02/16 09:48:18;;;;;;;;;;;;;;;20.01;29.83;102269.31;106222;1282;61297;-83
2023/02/16 09:50:45;;;;;;;;;;;;;;;20.02;29.74;102268.57;106236;1282;73480;-83
2023/02/16 09:53:44;;;;;;;;;;;;;;;20.03;29.68;102267.25;106870;1283;74500;-84
2023/02/16 09:56:21;;;;;;;;;;;;;;;20.05;29.75;102261.11;105716;1288;59773;-83
2023/02/16 09:58:55;;;;;;;;;;;;;;;20.06;29.90;102257.30;106060;1287;62599;-83
2023/02/16 10:01:32;;;;;;;;;;;;;;;20.05;29.62;102251.27;105634;1288;72594;-84
2023/02/16 10:04:00;;;;;;;;;;;;;;;20.03;29.74;102248.17;105646;1288;75483;-82
2023/02/16 10:06:30;;;;;;;;;;;;;;;19.97;30.11;102250.22;105592;1288;61388;-83
2023/02/16 10:08:59;;;;;;;;;;;;;;;19.95;30.42;102248.70;105614;1288;61435;-83
2023/02/16 10:11:40;;;;;;;;;;;;;;;19.94;30.50;102240.15;105547;1294;72445;-82
2023/02/16 10:14:11;;;;;;;;;;;;;;;19.92;30.74;102241.27;105615;1289;75268;-82
2023/02/16 10:16:40;;;;;;;;;;;;;;;19.88;30.56;102238.06;105526;1288;59971;-82
2023/02/16 10:19:26;;;;;;;;;;;;;;;19.82;30.70;102236.73;105557;1288;61173;-83
2023/02/16 10:21:53;;;;;;;;;;;;;;;19.79;30.81;102237.70;105627;1289;72494;-82
2023/02/16 10:24:19;;;;;;;;;;;;;;;19.73;30.60;102236.16;105607;1292;74292;-83
2023/02/16 10:26:45;;;;;;;;;;;;;;;19.71;30.64;102232.35;105609;1294;61466;-83
2023/02/16 10:29:13;;;;;;;;;;;;;;;19.71;30.81;102229.65;105552;1289;59198;-83
2023/02/16 10:31:42;;;;;;;;;;;;;;;19.73;30.87;102225.09;105698;1282;62191;-83
2023/02/16 10:34:17;;;;;;;;;;;;;;;19.73;30.73;102222.61;106152;1283;74763;-83
2023/02/16 10:36:45;;;;;;;;;;;;;;;19.69;30.90;102221.19;106243;1282;61189;-81
2023/02/16 10:39:14;;;;;;;;;;;;;;;19.68;30.96;102216.39;106748;1282;60261;-82
2023/02/16 10:41:42;;;;;;;;;;;;;;;19.68;30.88;102213.00;106722;1282;73312;-82
2023/02/16 10:44:15;;;;;;;;;;;;;;;19.68;30.78;102205.85;106238;1285;75264;-82
2023/02/16 10:46:42;;;;;;;;;;;;;;;19.67;30.86;102202.15;106240;1281;61077;-83
2023/02/16 10:49:08;;;;;;;;;;;;;;;19.63;30.77;102196.95;106162;1282;61186;-82
2023/02/16 10:51:36;;;;;;;;;;;;;;;19.63;30.88;102198.05;106215;1283;72481;-83
2023/02/16 10:54:25;;;;;;;;;;;;;;;19.63;30.79;102195.89;106307;1285;74394;-82
2023/02/16 10:56:59;;;;;;;;;;;;;;;19.63;30.79;102189.81;106293;1281;61218;-85
2023/02/16 10:59:25;;;;;;;;;;;;;;;19.64;31.03;102188.70;106451;1283;60341;-83
2023/02/16 11:01:52;;;;;;;;;;;;;;;19.65;30.92;102185.07;106219;1283;60398;-83
2023/02/16 11:04:34;;;;;;;;;;;;;;;19.67;30.98;102179.31;106191;1283;74935;-82
2023/02/16 11:07:07;;;;;;;;;;;;;;;19.65;31.12;102177.96;106072;1283;62096;-81
2023/02/16 11:09:33;;;;;;;;;;;;;;;19.61;31.18;102170.98;106227;1281;60457;-82
2023/02/16 11:11:59;;;;;;;;;;;;;;;19.60;31.11;102170.98;106370;1283;59280;-82
2023/02/16 11:14:27;;;;;;;;;;;;;;;19.58;31.22;102162.34;106274;1281;61263;-82
2023/02/16 11:17:06;;;;;;;;;;;;;;;19.54;31.27;102160.94;106678;1285;59634;-82
2023/02/16 11:19:32;;;;;;;;;;;;;;;19.48;31.30;102158.67;106287;1282;60916;-82
2023/02/16 11:21:58;;;;;;;;;;;;;;;19.49;31.36;102153.80;106211;1283;61275;-82
2023/02/16 11:24:23;;;;;;;;;;;;;;;19.51;31.28;102152.48;106253;1283;61237;-82
2023/02/16 11:27:13;;;;;;;;;;;;;;;19.52;31.42;102146.02;106635;1285;59185;-83
2023/02/16 11:29:39;;;;;;;;;;;;;;;19.52;31.28;102141.38;106325;1282;60238;-82
2023/02/16 11:32:12;;;;;;;;;;;;;;;19.51;31.25;102139.43;106258;1288;61406;-82
2023/02/16 11:34:39;;;;;;;;;;;;;;;19.50;31.29;102137.89;106259;1282;74299;-82
2023/02/16 11:37:23;;;;;;;;;;;;;;;19.51;31.16;102136.42;106244;1283;61320;-83
2023/02/16 11:39:53;;;;;;;;;;;;;;;19.50;31.20;102126.60;106231;1282;61051;-83
2023/02/16 11:42:35;;;;;;;;;;;;;;;19.54;31.27;102126.11;106406;1282;73438;-83
2023/02/16 11:45:00;;;;;;;;;;;;;;;19.57;31.26;102122.58;106275;1287;75466;-82
2023/02/16 11:47:33;;;;;;;;;;;;;;;19.55;31.21;102119.45;106401;1283;62271;-83
2023/02/16 11:50:08;;;;;;;;;;;;;;;19.54;31.12;102119.67;106226;1286;60335;-83
2023/02/16 11:52:33;;;;;;;;;;;;;;;19.53;31.19;102113.83;106246;1284;73756;-83
2023/02/16 11:54:59;;;;;;;;;;;;;;;19.52;31.33;102109.93;106367;1285;61106;-82
2023/02/16 11:57:30;;;;;;;;;;;;;;;19.55;31.24;102105.71;106320;1282;59593;-83
2023/02/16 11:59:55;;;;;;;;;;;;;;;19.57;31.27;102102.72;106308;1287;61265;-82
2023/02/16 12:02:31;;;;;;;;;;;;;;;19.59;31.38;102095.70;106215;1283;61380;-83
2023/02/16 12:04:59;;;;;;;;;;;;;;;19.57;31.24;102094.91;106204;1283;74574;-83
2023/02/16 12:07:30;;;;;;;;;;;;;;;19.51;31.25;102088.55;106208;1282;59849;-83
2023/02/16 12:09:59;;;;;;;;;;;;;;;19.44;31.14;102088.67;106405;1285;59743;-83
2023/02/16 12:12:30;;;;;;;;;;;;;;;19.41;31.39;102088.42;106365;1285;71410;-83
2023/02/16 12:15:07;;;;;;;;;;;;;;;19.42;31.25;102077.34;106423;1283;74474;-83
2023/02/16 12:17:48;;;;;;;;;;;;;;;19.43;31.23;102075.69;106877;1283;60975;-83
2023/02/16 12:20:23;;;;;;;;;;;;;;;19.45;31.14;102067.76;106940;1282;59064;-83
2023/02/16 12:22:49;;;;;;;;;;;;;;;19.47;31.20;102063.73;106978;1282;73396;-83
2023/02/16 12:25:18;;;;;;;;;;;;;;;19.49;31.07;102062.23;106994;1283;76454;-83
2023/02/16 12:27:45;;;;;;;;;;;;;;;19.49;31.20;102056.86;106384;1281;61275;-84
2023/02/16 12:30:11;;;;;;;;;;;;;;;19.47;31.14;102054.08;106369;1282;61230;-83
2023/02/16 12:32:56;;;;;;;;;;;;;;;19.49;31.11;102050.23;106309;1282;61028;-84
2023/02/16 12:35:27;;;;;;;;;;;;;;;19.49;31.03;102046.84;106428;1282;75622;-84
2023/02/16 12:38:12;;;;;;;;;;;;;;;19.49;30.92;102042.23;106438;1282;60358;-83
2023/02/16 12:40:56;;;;;;;;;;;;;;;19.50;30.80;102037.33;106531;1283;61276;-82
2023/02/16 12:43:45;;;;;;;;;;;;;;;19.53;30.79;102033.30;106406;1282;73315;-83
2023/02/16 12:46:17;;;;;;;;;;;;;;;19.57;30.65;102026.66;106297;1292;74290;-84
2023/02/16 12:48:56;;;;;;;;;;;;;;;19.61;30.59;102024.91;105589;1289;62456;-82
2023/02/16 12:51:25;;;;;;;;;;;;;;;19.63;30.56;102022.30;105586;1289;63602;-82
2023/02/16 12:53:56;;;;;;;;;;;;;;;19.64;30.53;102019.57;105430;1294;72450;-82
2023/02/16 12:56:31;;;;;;;;;;;;;;;19.66;30.44;102020.38;105609;1288;74770;-83
2023/02/16 12:59:15;;;;;;;;;;;;;;;19.65;30.46;102015.05;105613;1289;60024;-83
2023/02/16 13:01:40;;;;;;;;;;;;;;;19.63;30.62;102017.64;105668;1288;60238;-83
2023/02/16 13:04:20;;;;;;;;;;;;;;;19.62;30.39;102013.61;105838;1294;61496;-83
2023/02/16 13:07:01;;;;;;;;;;;;;;;19.61;30.28;102013.10;105654;1289;75637;-83
2023/02/16 13:09:50;;;;;;;;;;;;;;;19.60;30.28;102006.16;105690;1289;61359;-83
2023/02/16 13:12:30;;;;;;;;;;;;;;;19.60;30.34;102006.70;105644;1293;61203;-83
2023/02/16 13:15:16;;;;;;;;;;;;;;;19.60;30.41;101999.73;105742;1289;73543;-83